createdAt,value
2018-06-27T00:01:10.670Z,91.90
2018-06-27T00:03:38.914Z,92.00
2018-06-27T00:11:03.246Z,92.00
2018-06-27T00:13:31.523Z,92.00
2018-06-27T00:15:59.829Z,92.10
2018-06-27T00:18:28.134Z,92.10
2018-06-27T00:20:56.382Z,92.20
2018-06-27T00:23:24.673Z,92.30
2018-06-27T00:25:52.953Z,92.20
2018-06-27T00:28:21.400Z,92.30
2018-06-27T00:30:49.664Z,92.40
2018-06-27T00:33:17.955Z,92.40
2018-06-27T00:35:46.234Z,92.40
2018-06-27T00:38:16.470Z,92.50
2018-06-27T00:40:45.027Z,92.60
2018-06-27T00:43:13.714Z,92.60
2018-06-27T00:45:42.018Z,92.70
2018-06-27T00:48:10.481Z,92.70
2018-06-27T00:50:39.375Z,92.70
2018-06-27T00:53:07.632Z,92.60
2018-06-27T00:55:36.527Z,92.60
2018-06-27T00:58:05.133Z,92.70
2018-06-27T01:00:33.426Z,92.70
2018-06-27T01:03:01.702Z,92.70
2018-06-27T01:05:30.146Z,92.70
2018-06-27T01:07:58.447Z,92.70
2018-06-27T01:10:26.750Z,92.80
2018-06-27T01:12:55.009Z,92.80
2018-06-27T01:15:23.368Z,92.90
2018-06-27T01:17:52.565Z,92.90
2018-06-27T01:20:20.868Z,92.90
2018-06-27T01:22:49.616Z,93.00
2018-06-27T01:25:17.961Z,93.30
2018-06-27T01:27:46.693Z,93.00
2018-06-27T01:30:14.958Z,93.10
2018-06-27T01:32:43.219Z,93.10
2018-06-27T01:35:11.498Z,93.10
2018-06-27T01:37:39.802Z,93.10
2018-06-27T01:40:08.126Z,93.10
2018-06-27T01:42:36.528Z,93.20
2018-06-27T01:45:04.842Z,93.30
2018-06-27T01:47:33.130Z,93.30
2018-06-27T01:50:01.416Z,93.40
2018-06-27T01:52:29.754Z,93.40
2018-06-27T01:54:58.033Z,93.40
2018-06-27T01:57:26.323Z,93.40
2018-06-27T01:59:54.581Z,93.40
2018-06-27T02:02:22.881Z,93.50
2018-06-27T02:04:51.157Z,93.50
2018-06-27T02:07:19.468Z,93.50
2018-06-27T02:09:47.790Z,93.50
2018-06-27T02:12:16.090Z,93.50
2018-06-27T02:14:44.408Z,93.50
2018-06-27T02:17:12.686Z,93.60
2018-06-27T02:19:40.950Z,93.70
2018-06-27T02:22:09.364Z,93.80
2018-06-27T02:24:37.670Z,93.90
2018-06-27T02:27:06.133Z,93.90
2018-06-27T02:29:34.495Z,93.90
2018-06-27T02:32:02.828Z,94.00
2018-06-27T02:34:31.237Z,94.00
2018-06-27T02:36:59.577Z,94.00
2018-06-27T02:39:27.890Z,94.00
2018-06-27T02:41:56.266Z,94.00
2018-06-27T02:44:24.669Z,94.00
2018-06-27T02:46:53.027Z,94.00
2018-06-27T02:49:21.372Z,94.00
2018-06-27T02:51:49.701Z,94.10
2018-06-27T02:54:18.065Z,94.10
2018-06-27T02:56:46.409Z,94.10
2018-06-27T02:59:14.826Z,94.10
2018-06-27T03:01:43.189Z,94.10
2018-06-27T03:06:39.602Z,94.20
2018-06-27T03:09:09.584Z,94.20
2018-06-27T03:11:37.978Z,94.20
2018-06-27T03:14:06.418Z,94.20
2018-06-27T03:16:34.992Z,94.50
2018-06-27T03:19:03.361Z,94.20
2018-06-27T03:21:31.725Z,94.20
2018-06-27T03:24:00.042Z,94.40
2018-06-27T03:26:28.417Z,94.20
2018-06-27T03:28:56.748Z,94.20
2018-06-27T03:31:25.150Z,94.20
2018-06-27T03:33:53.885Z,94.20
2018-06-27T03:36:22.980Z,94.20
2018-06-27T03:38:51.337Z,94.20
2018-06-27T03:41:19.721Z,94.20
2018-06-27T03:43:48.046Z,94.20
2018-06-27T03:46:16.364Z,94.20
2018-06-27T03:48:44.661Z,94.30
2018-06-27T03:51:12.981Z,94.20
2018-06-27T03:53:46.493Z,94.20
2018-06-27T03:56:14.809Z,94.20
2018-06-27T03:58:43.197Z,94.20
2018-06-27T04:01:11.525Z,94.10
2018-06-27T04:03:41.121Z,94.10
2018-06-27T04:06:10.577Z,94.20
2018-06-27T04:08:38.913Z,94.10
2018-06-27T04:11:07.277Z,94.10
2018-06-27T04:13:35.875Z,94.10
2018-06-27T04:16:04.220Z,94.10
2018-06-27T04:18:32.543Z,94.10
2018-06-27T04:21:00.931Z,94.00
2018-06-27T04:23:29.321Z,94.00
2018-06-27T04:25:57.706Z,94.10
2018-06-27T04:28:26.048Z,94.20
2018-06-27T04:30:54.429Z,94.00
2018-06-27T04:35:51.202Z,94.00
2018-06-27T04:38:19.753Z,94.10
2018-06-27T04:40:48.672Z,94.00
2018-06-27T04:43:17.941Z,94.00
2018-06-27T04:45:46.245Z,94.00
2018-06-27T04:48:14.560Z,94.00
2018-06-27T04:50:42.905Z,94.00
2018-06-27T04:53:11.225Z,94.00
2018-06-27T04:55:39.606Z,94.00
2018-06-27T04:58:07.914Z,94.00
2018-06-27T05:00:36.257Z,93.90
2018-06-27T05:03:04.569Z,93.90
2018-06-27T05:05:32.934Z,93.90
2018-06-27T05:08:01.273Z,93.90
2018-06-27T05:10:29.649Z,94.00
2018-06-27T05:12:57.974Z,94.00
2018-06-27T05:15:26.286Z,94.00
2018-06-27T05:17:54.629Z,93.90
2018-06-27T05:20:22.925Z,93.90
2018-06-27T05:22:51.268Z,93.90
2018-06-27T05:25:19.580Z,93.80
2018-06-27T05:27:47.889Z,93.80
2018-06-27T05:30:16.276Z,93.80
2018-06-27T05:32:44.579Z,93.80
2018-06-27T05:35:12.930Z,93.90
2018-06-27T05:37:41.315Z,93.80
2018-06-27T05:40:09.693Z,93.80
2018-06-27T05:42:38.090Z,93.80
2018-06-27T05:45:06.706Z,93.80
2018-06-27T05:47:35.025Z,93.70
2018-06-27T05:50:03.400Z,93.70
2018-06-27T05:52:31.686Z,93.80
2018-06-27T05:55:05.372Z,93.80
2018-06-27T05:57:33.655Z,93.70
2018-06-27T06:00:01.991Z,93.70
2018-06-27T06:02:30.421Z,93.80
2018-06-27T06:04:58.739Z,93.70
2018-06-27T06:07:27.248Z,93.60
2018-06-27T06:09:55.533Z,93.50
2018-06-27T06:12:23.923Z,93.50
2018-06-27T06:14:52.437Z,93.40
2018-06-27T06:17:21.017Z,93.40
2018-06-27T06:19:49.389Z,93.30
2018-06-27T06:22:17.742Z,93.30
2018-06-27T06:24:46.629Z,93.20
2018-06-27T06:27:15.671Z,93.10
2018-06-27T06:29:45.033Z,93.00
2018-06-27T06:32:13.955Z,92.90
2018-06-27T06:34:42.345Z,92.80
2018-06-27T06:37:11.517Z,92.60
2018-06-27T06:39:39.912Z,92.30
2018-06-27T06:42:08.293Z,91.90
2018-06-27T06:44:38.093Z,91.30
2018-06-27T06:47:06.459Z,90.90
2018-06-27T06:49:34.840Z,90.80
2018-06-27T06:52:03.239Z,90.60
2018-06-27T06:54:31.619Z,90.50
2018-06-27T06:56:59.998Z,90.40
2018-06-27T06:59:28.384Z,89.60
2018-06-27T07:01:56.689Z,88.90
2018-06-27T07:04:25.014Z,88.00
2018-06-27T07:06:53.669Z,86.60
2018-06-27T07:09:22.020Z,86.00
2018-06-27T07:11:50.340Z,85.60
2018-06-27T07:14:18.777Z,84.90
2018-06-27T07:16:47.294Z,84.80
2018-06-27T07:19:15.607Z,83.70
2018-06-27T07:21:44.112Z,83.10
2018-06-27T07:24:12.488Z,82.60
2018-06-27T07:26:40.855Z,82.50
2018-06-27T07:29:09.174Z,82.60
2018-06-27T07:31:37.558Z,82.10
2018-06-27T07:34:06.026Z,81.60
2018-06-27T07:36:36.479Z,79.20
2018-06-27T07:39:07.586Z,78.60
2018-06-27T07:41:35.953Z,78.20
2018-06-27T07:44:04.306Z,77.30
2018-06-27T07:46:32.682Z,76.20
2018-06-27T07:49:01.053Z,76.60
2018-06-27T07:51:29.405Z,77.30
2018-06-27T07:53:57.767Z,76.80
2018-06-27T07:56:26.142Z,76.40
2018-06-27T07:58:54.625Z,76.20
2018-06-27T08:01:23.022Z,73.70
2018-06-27T08:03:51.365Z,73.70
2018-06-27T08:06:19.725Z,72.80
2018-06-27T08:08:48.179Z,72.00
2018-06-27T08:11:16.619Z,71.10
2018-06-27T08:13:44.954Z,70.40
2018-06-27T08:16:13.525Z,69.10
2018-06-27T08:18:43.746Z,68.80
2018-06-27T08:21:12.110Z,68.10
2018-06-27T08:23:40.446Z,67.70
2018-06-27T08:26:08.945Z,66.40
2018-06-27T08:28:37.297Z,66.40
2018-06-27T08:31:05.766Z,67.60
2018-06-27T08:33:34.134Z,68.00
2018-06-27T08:36:02.466Z,67.40
2018-06-27T08:38:30.845Z,66.30
2018-06-27T08:40:59.336Z,65.50
2018-06-27T08:43:27.662Z,65.20
2018-06-27T08:45:56.029Z,64.80
2018-06-27T08:48:24.633Z,62.70
2018-06-27T08:50:52.990Z,62.40
2018-06-27T08:53:21.436Z,62.70
2018-06-27T08:55:49.936Z,62.00
2018-06-27T08:58:18.283Z,60.90
2018-06-27T09:00:46.598Z,59.70
2018-06-27T09:03:15.016Z,58.30
2018-06-27T09:05:45.896Z,57.00
2018-06-27T09:08:15.209Z,55.10
2018-06-27T09:10:49.457Z,54.40
2018-06-27T09:13:17.877Z,53.80
2018-06-27T09:15:46.182Z,53.80
2018-06-27T09:18:14.513Z,52.50
2018-06-27T09:20:42.913Z,52.00
2018-06-27T09:23:11.298Z,51.20
2018-06-27T09:25:39.707Z,50.40
2018-06-27T09:28:08.063Z,49.70
2018-06-27T09:30:36.885Z,48.40
2018-06-27T09:33:05.329Z,47.20
2018-06-27T09:35:34.185Z,46.50
2018-06-27T09:38:02.603Z,45.30
2018-06-27T09:40:30.919Z,45.60
2018-06-27T09:43:02.202Z,45.70
2018-06-27T09:45:30.641Z,43.60
2018-06-27T09:47:58.993Z,42.10
2018-06-27T09:50:27.403Z,41.30
2018-06-27T09:52:55.793Z,41.90
2018-06-27T09:55:24.162Z,41.50
2018-06-27T09:57:52.586Z,41.10
2018-06-27T10:00:26.212Z,40.80
2018-06-27T10:02:54.599Z,42.60
2018-06-27T10:05:22.987Z,42.90
2018-06-27T10:07:51.276Z,42.80
2018-06-27T10:10:19.599Z,42.20
2018-06-27T10:12:47.985Z,42.50
2018-06-27T10:15:16.322Z,42.40
2018-06-27T10:17:44.643Z,42.40
2018-06-27T10:20:12.988Z,41.50
2018-06-27T10:22:41.395Z,42.10
2018-06-27T10:25:09.631Z,42.40
2018-06-27T10:27:38.065Z,42.00
2018-06-27T10:30:06.462Z,41.90
2018-06-27T10:32:35.017Z,42.50
2018-06-27T10:35:03.418Z,43.00
2018-06-27T10:37:31.878Z,44.10
2018-06-27T10:40:00.210Z,44.10
2018-06-27T10:42:28.526Z,43.20
2018-06-27T10:44:56.845Z,43.70
2018-06-27T10:47:25.216Z,44.40
2018-06-27T10:52:22.050Z,43.20
2018-06-27T10:54:54.493Z,42.60
2018-06-27T10:57:23.733Z,41.80
2018-06-27T10:59:53.145Z,41.50
2018-06-27T11:02:22.224Z,41.00
2018-06-27T11:04:50.666Z,41.60
2018-06-27T11:07:19.010Z,41.40
2018-06-27T11:09:47.373Z,40.80
2018-06-27T11:12:15.728Z,41.50
2018-06-27T11:14:44.156Z,41.30
2018-06-27T11:17:12.544Z,41.60
2018-06-27T11:19:40.914Z,40.90
2018-06-27T11:22:09.302Z,40.10
2018-06-27T11:24:37.633Z,38.80
2018-06-27T11:27:06.030Z,38.40
2018-06-27T11:29:34.342Z,37.50
2018-06-27T11:32:02.680Z,36.90
2018-06-27T11:34:31.013Z,35.40
2018-06-27T11:36:59.333Z,35.10
2018-06-27T11:39:28.109Z,34.60
2018-06-27T11:41:56.721Z,34.50
2018-06-27T11:44:25.092Z,34.70
2018-06-27T11:46:53.422Z,34.20
2018-06-27T11:49:21.793Z,34.20
2018-06-27T11:51:50.158Z,34.40
2018-06-27T11:54:18.516Z,35.00
2018-06-27T11:56:47.082Z,35.00
2018-06-27T12:01:43.450Z,34.00
2018-06-27T12:04:11.934Z,33.40
2018-06-27T12:06:40.229Z,33.00
2018-06-27T12:09:09.900Z,32.40
2018-06-27T12:11:38.497Z,32.00
2018-06-27T12:14:07.028Z,31.40
2018-06-27T12:16:35.377Z,31.50
2018-06-27T12:19:03.706Z,31.80
2018-06-27T12:21:32.091Z,31.30
2018-06-27T12:24:00.401Z,30.90
2018-06-27T12:26:28.818Z,30.20
2018-06-27T12:28:57.169Z,29.80
2018-06-27T12:31:25.659Z,29.80
2018-06-27T12:33:54.009Z,29.20
2018-06-27T12:36:22.380Z,28.60
2018-06-27T12:38:50.789Z,28.30
2018-06-27T12:41:19.141Z,28.20
2018-06-27T12:43:47.497Z,28.40
2018-06-27T12:46:15.822Z,28.80
2018-06-27T12:48:44.201Z,29.00
2018-06-27T12:51:12.580Z,28.40
2018-06-27T12:53:41.747Z,28.10
2018-06-27T12:56:10.178Z,27.90
2018-06-27T12:58:38.612Z,27.80
2018-06-27T13:01:07.041Z,27.80
2018-06-27T13:03:35.397Z,27.80
2018-06-27T13:06:03.787Z,27.10
2018-06-27T13:08:32.157Z,27.00
2018-06-27T13:11:00.539Z,26.60
2018-06-27T13:13:28.878Z,26.50
2018-06-27T13:15:57.373Z,26.90
2018-06-27T13:18:25.681Z,27.10
2018-06-27T13:23:22.165Z,26.70
2018-06-27T13:25:50.531Z,26.60
2018-06-27T13:28:18.845Z,26.50
2018-06-27T13:30:47.340Z,27.40
2018-06-27T13:33:15.649Z,27.50
2018-06-27T13:35:44.126Z,27.40
2018-06-27T13:38:12.439Z,26.60
2018-06-27T13:43:08.958Z,26.00
2018-06-27T13:45:37.296Z,26.40
2018-06-27T13:48:06.069Z,26.80
2018-06-27T13:50:34.441Z,26.50
2018-06-27T13:53:02.953Z,26.20
2018-06-27T13:55:31.367Z,25.90
2018-06-27T13:57:59.739Z,26.00
2018-06-27T14:00:28.050Z,26.60
2018-06-27T14:02:56.404Z,27.10
2018-06-27T14:05:24.798Z,27.30
2018-06-27T14:07:53.096Z,27.40
2018-06-27T14:10:21.431Z,27.50
2018-06-27T14:12:49.756Z,27.80
2018-06-27T14:15:18.193Z,27.70
2018-06-27T14:17:46.583Z,27.80
2018-06-27T14:20:14.954Z,27.40
2018-06-27T14:22:43.265Z,27.80
2018-06-27T14:25:11.652Z,28.20
2018-06-27T14:27:43.028Z,28.00
2018-06-27T14:30:11.334Z,28.10
2018-06-27T14:32:39.694Z,28.60
2018-06-27T14:35:08.273Z,30.00
2018-06-27T14:37:36.627Z,30.80
2018-06-27T14:40:05.176Z,30.50
2018-06-27T14:42:33.467Z,29.70
2018-06-27T14:45:01.813Z,29.80
2018-06-27T14:47:30.129Z,30.10
2018-06-27T14:49:58.450Z,30.10
2018-06-27T14:52:27.157Z,30.80
2018-06-27T14:54:55.503Z,31.60
2018-06-27T14:57:24.118Z,32.50
2018-06-27T14:59:52.441Z,33.70
2018-06-27T15:02:20.785Z,34.80
2018-06-27T15:04:49.205Z,36.30
2018-06-27T15:07:17.538Z,37.20
2018-06-27T15:09:45.881Z,38.20
2018-06-27T15:12:14.303Z,38.30
2018-06-27T15:14:42.585Z,38.80
2018-06-27T15:17:10.890Z,39.10
2018-06-27T15:19:39.229Z,40.10
2018-06-27T15:22:07.615Z,40.90
2018-06-27T15:24:35.946Z,41.30
2018-06-27T15:27:04.350Z,42.00
2018-06-27T15:29:33.205Z,42.00
2018-06-27T15:32:01.538Z,42.70
2018-06-27T15:34:29.857Z,43.80
2018-06-27T15:36:58.182Z,44.80
2018-06-27T15:39:26.498Z,45.20
2018-06-27T15:41:54.870Z,45.40
2018-06-27T15:44:23.224Z,45.70
2018-06-27T15:46:51.585Z,45.70
2018-06-27T15:49:19.986Z,45.90
2018-06-27T15:51:48.394Z,46.50
2018-06-27T15:54:16.721Z,46.70
2018-06-27T15:56:45.247Z,47.50
2018-06-27T15:59:13.634Z,48.00
2018-06-27T16:01:42.072Z,48.10
2018-06-27T16:04:10.645Z,48.10
2018-06-27T16:06:39.001Z,48.10
2018-06-27T16:09:08.321Z,48.70
2018-06-27T16:11:37.246Z,49.10
2018-06-27T16:16:33.769Z,49.70
2018-06-27T16:19:02.480Z,50.00
2018-06-27T16:21:30.870Z,50.40
2018-06-27T16:23:59.299Z,50.50
2018-06-27T16:26:27.609Z,50.90
2018-06-27T16:28:55.949Z,51.20
2018-06-27T16:31:24.522Z,51.20
2018-06-27T16:33:52.850Z,51.60
2018-06-27T16:36:22.654Z,52.00
2018-06-27T16:38:51.049Z,52.20
2018-06-27T16:41:19.518Z,52.30
2018-06-27T16:43:47.873Z,52.60
2018-06-27T16:46:16.275Z,52.20
2018-06-27T16:48:44.569Z,52.20
2018-06-27T16:51:13.031Z,52.50
2018-06-27T16:53:41.494Z,52.80
2018-06-27T16:56:12.700Z,53.00
2018-06-27T16:58:41.123Z,53.30
2018-06-27T17:01:09.555Z,53.50
2018-06-27T17:03:37.997Z,53.70
2018-06-27T17:06:06.404Z,53.80
2018-06-27T17:08:34.733Z,54.10
2018-06-27T17:11:03.109Z,54.10
2018-06-27T17:13:31.470Z,54.40
2018-06-27T17:15:59.856Z,54.30
2018-06-27T17:18:28.182Z,54.30
2018-06-27T17:20:56.526Z,54.40
2018-06-27T17:23:25.015Z,54.40
2018-06-27T17:25:53.373Z,54.60
2018-06-27T17:28:21.711Z,55.00
2018-06-27T17:30:50.156Z,55.30
2018-06-27T17:33:18.609Z,55.50
2018-06-27T17:35:46.993Z,55.80
2018-06-27T17:38:15.356Z,55.80
2018-06-27T17:40:43.681Z,55.80
2018-06-27T17:43:12.057Z,55.80
2018-06-27T17:45:40.421Z,55.90
2018-06-27T17:48:08.826Z,56.00
2018-06-27T17:50:37.205Z,56.40
2018-06-27T17:53:05.590Z,56.10
2018-06-27T17:55:33.958Z,56.10
2018-06-27T17:58:02.325Z,56.30
2018-06-27T18:00:30.897Z,56.60
2018-06-27T18:02:59.238Z,57.00
2018-06-27T18:05:27.589Z,57.00
2018-06-27T18:07:55.937Z,57.20
2018-06-27T18:10:24.274Z,57.20
2018-06-27T18:12:52.596Z,57.60
2018-06-27T18:15:20.945Z,57.80
2018-06-27T18:17:49.224Z,58.30
2018-06-27T18:20:17.566Z,58.50
2018-06-27T18:22:46.033Z,58.40
2018-06-27T18:25:14.470Z,58.60
2018-06-27T18:27:42.801Z,59.10
2018-06-27T18:30:11.117Z,59.30
2018-06-27T18:32:39.453Z,59.50
2018-06-27T18:35:08.998Z,59.60
2018-06-27T18:37:37.482Z,59.80
2018-06-27T18:40:06.409Z,60.00
2018-06-27T18:42:34.717Z,60.60
2018-06-27T18:47:31.426Z,60.50
2018-06-27T18:49:59.790Z,61.00
2018-06-27T18:52:28.121Z,61.00
2018-06-27T18:54:56.706Z,61.00
2018-06-27T18:57:25.085Z,60.90
2018-06-27T19:02:21.510Z,61.20
2018-06-27T19:04:49.845Z,61.20
2018-06-27T19:07:18.301Z,61.30
2018-06-27T19:09:46.705Z,62.00
2018-06-27T19:12:15.038Z,62.10
2018-06-27T19:14:43.406Z,62.20
2018-06-27T19:17:11.801Z,62.40
2018-06-27T19:19:40.115Z,62.50
2018-06-27T19:22:08.709Z,63.50
2018-06-27T19:24:37.021Z,62.90
2018-06-27T19:27:05.408Z,63.00
2018-06-27T19:29:33.745Z,63.50
2018-06-27T19:32:02.242Z,63.60
2018-06-27T19:34:30.608Z,63.80
2018-06-27T19:36:58.977Z,64.10
2018-06-27T19:39:37.463Z,64.30
2018-06-27T19:41:55.679Z,64.40
2018-06-27T19:46:52.122Z,65.20
2018-06-27T19:49:20.609Z,65.70
2018-06-27T19:51:49.098Z,67.00
2018-06-27T19:56:45.848Z,66.70
2018-06-27T19:59:14.201Z,67.10
2018-06-27T20:01:42.553Z,67.30
2018-06-27T20:04:10.924Z,67.60
2018-06-27T20:06:39.317Z,67.80
2018-06-27T20:09:08.842Z,68.00
2018-06-27T20:11:37.217Z,68.10
2018-06-27T20:14:05.649Z,68.40
2018-06-27T20:16:34.129Z,68.90
2018-06-27T20:21:30.583Z,69.00
2018-06-27T20:23:58.974Z,69.50
2018-06-27T20:26:27.321Z,69.80
2018-06-27T20:28:55.670Z,70.30
2018-06-27T20:31:24.065Z,70.40
2018-06-27T20:33:52.446Z,70.70
2018-06-27T20:36:20.822Z,71.00
2018-06-27T20:38:49.329Z,71.20
2018-06-27T20:41:17.757Z,71.70
2018-06-27T20:43:46.153Z,71.80
2018-06-27T20:46:14.529Z,72.20
2018-06-27T20:48:42.997Z,72.40
2018-06-27T20:51:11.342Z,72.70
2018-06-27T20:53:39.682Z,73.20
2018-06-27T20:56:08.025Z,73.40
2018-06-27T20:58:36.552Z,73.80
2018-06-27T21:01:04.975Z,74.10
2018-06-27T21:03:33.310Z,74.60
2018-06-27T21:06:01.747Z,74.70
2018-06-27T21:08:32.812Z,75.00
2018-06-27T21:11:01.211Z,75.10
2018-06-27T21:13:30.945Z,75.30
2018-06-27T21:15:59.311Z,75.80
2018-06-27T21:18:27.695Z,76.70
2018-06-27T21:20:56.161Z,76.30
2018-06-27T21:25:52.798Z,76.90
2018-06-27T21:28:21.158Z,77.10
2018-06-27T21:30:49.802Z,77.40
2018-06-27T21:33:18.141Z,77.30
2018-06-27T21:35:46.530Z,77.80
2018-06-27T21:38:14.914Z,78.00
2018-06-27T21:40:43.277Z,78.30
2018-06-27T21:43:11.649Z,78.50
2018-06-27T21:45:39.978Z,78.80
2018-06-27T21:48:08.340Z,79.10
2018-06-27T21:50:37.047Z,79.40
2018-06-27T21:53:05.853Z,79.60
2018-06-27T21:55:34.158Z,79.90
2018-06-27T21:58:02.507Z,80.40
2018-06-27T22:00:32.595Z,80.70
2018-06-27T22:03:01.705Z,81.00
2018-06-27T22:05:30.070Z,81.30
2018-06-27T22:07:58.602Z,81.60
2018-06-27T22:10:27.093Z,81.80
2018-06-27T22:12:55.522Z,82.10
2018-06-27T22:15:23.926Z,82.30
2018-06-27T22:17:52.281Z,82.50
2018-06-27T22:20:20.649Z,82.80
2018-06-27T22:22:48.969Z,83.00
2018-06-27T22:25:17.365Z,83.40
2018-06-27T22:27:45.721Z,83.60
2018-06-27T22:30:14.051Z,83.90
2018-06-27T22:32:42.426Z,84.00
2018-06-27T22:35:11.319Z,84.20
2018-06-27T22:37:39.713Z,84.40
2018-06-27T22:40:08.053Z,84.50
2018-06-27T22:45:04.961Z,84.90
2018-06-27T22:47:34.294Z,85.10
2018-06-27T22:50:02.688Z,85.40
2018-06-27T22:52:31.129Z,85.40
2018-06-27T22:54:59.502Z,85.40
2018-06-27T22:57:27.938Z,85.40
2018-06-27T22:59:56.290Z,85.90
2018-06-27T23:02:24.661Z,85.90
2018-06-27T23:04:53.005Z,85.90
2018-06-27T23:07:21.404Z,86.10
2018-06-27T23:09:49.783Z,86.10
2018-06-27T23:12:18.413Z,86.20
2018-06-27T23:17:14.937Z,86.40
2018-06-27T23:19:43.265Z,86.50
2018-06-27T23:22:22.884Z,86.40
2018-06-27T23:24:51.232Z,86.20
2018-06-27T23:27:19.593Z,86.30
2018-06-27T23:29:47.927Z,86.50
2018-06-27T23:32:16.385Z,86.80
2018-06-27T23:34:44.783Z,86.90
2018-06-27T23:37:13.181Z,87.00
2018-06-27T23:39:41.509Z,87.10
2018-06-27T23:42:10.388Z,87.00
2018-06-27T23:44:38.729Z,87.20
2018-06-27T23:47:07.061Z,87.20
2018-06-27T23:49:35.423Z,87.10
2018-06-27T23:52:03.823Z,87.20
2018-06-27T23:54:32.245Z,87.60
2018-06-27T23:57:00.565Z,87.80
2018-06-27T23:59:28.956Z,88.00
